createdAt,value
2023-05-14T00:00:01.676Z,12.61
2023-05-14T00:00:33.201Z,12.72
2023-05-14T00:01:05.254Z,12.72
2023-05-14T00:01:34.775Z,12.72
2023-05-14T00:01:52.791Z,12.72
2023-05-14T00:02:26.305Z,12.72
2023-05-14T00:02:42.450Z,12.72
2023-05-14T00:03:12.921Z,12.72
2023-05-14T00:03:33.936Z,12.72
2023-05-14T00:04:00.831Z,12.72
2023-05-14T00:04:32.527Z,12.72
2023-05-14T00:05:05.492Z,12.61
2023-05-14T00:05:33.909Z,12.61
2023-05-14T00:05:52.272Z,12.61
2023-05-14T00:06:25.214Z,12.61
2023-05-14T00:06:41.798Z,12.61
2023-05-14T00:07:13.201Z,12.61
2023-05-14T00:07:34.156Z,12.61
2023-05-14T00:08:00.690Z,12.61
2023-05-14T00:08:32.284Z,12.61
2023-05-14T00:09:04.248Z,12.61
2023-05-14T00:09:34.150Z,12.61
2023-05-14T00:09:52.522Z,12.61
2023-05-14T00:10:25.494Z,12.72
2023-05-14T00:10:41.808Z,12.72
2023-05-14T00:11:12.758Z,14.58
2023-05-14T00:11:34.438Z,14.32
2023-05-14T00:12:01.295Z,15.80
2023-05-14T00:12:33.136Z,12.77
2023-05-14T00:13:04.261Z,12.88
2023-05-14T00:13:34.627Z,13.00
2023-05-14T00:13:52.200Z,13.11
2023-05-14T00:14:24.630Z,13.11
2023-05-14T00:14:42.408Z,13.11
2023-05-14T00:15:13.351Z,13.11
2023-05-14T00:15:34.650Z,13.11
2023-05-14T00:16:00.630Z,13.11
2023-05-14T00:16:32.371Z,13.11
2023-05-14T00:17:05.216Z,13.22
2023-05-14T00:17:34.362Z,13.22
2023-05-14T00:17:52.260Z,13.22
2023-05-14T00:18:24.681Z,13.22
2023-05-14T00:18:41.561Z,13.22
2023-05-14T00:19:13.266Z,13.22
2023-05-14T00:19:36.945Z,13.22
2023-05-14T00:20:00.957Z,13.22
2023-05-14T00:20:32.334Z,13.22
2023-05-14T00:21:04.249Z,13.27
2023-05-14T00:21:33.763Z,13.27
2023-05-14T00:21:52.218Z,13.27
2023-05-14T00:22:30.377Z,13.27
2023-05-14T00:22:34.651Z,13.27
2023-05-14T00:22:57.265Z,13.27
2023-05-14T00:23:28.197Z,13.27
2023-05-14T00:24:00.714Z,13.27
2023-05-14T00:24:32.217Z,13.27
2023-05-14T00:25:04.279Z,13.27
2023-05-14T00:25:33.745Z,16.28
2023-05-14T00:25:53.227Z,13.27
2023-05-14T00:26:24.661Z,13.27
2023-05-14T00:26:41.458Z,13.27
2023-05-14T00:27:12.612Z,13.38
2023-05-14T00:27:33.768Z,13.38
2023-05-14T00:28:01.461Z,13.38
2023-05-14T00:28:32.190Z,13.38
2023-05-14T00:29:06.693Z,13.38
2023-05-14T00:29:33.754Z,13.38
2023-05-14T00:29:52.204Z,13.27
2023-05-14T00:30:24.864Z,13.27
2023-05-14T00:30:41.588Z,13.27
2023-05-14T00:31:13.278Z,13.27
2023-05-14T00:31:33.798Z,13.27
2023-05-14T00:32:00.846Z,13.27
2023-05-14T00:32:32.224Z,13.27
2023-05-14T00:33:04.289Z,13.27
2023-05-14T00:33:34.275Z,13.27
2023-05-14T00:33:52.583Z,13.38
2023-05-14T00:34:26.475Z,13.38
2023-05-14T00:34:56.273Z,13.38
2023-05-14T00:35:29.427Z,13.27
2023-05-14T00:36:00.766Z,13.27
2023-05-14T00:36:33.239Z,13.27
2023-05-14T00:37:04.188Z,13.27
2023-05-14T00:37:34.629Z,13.27
2023-05-14T00:37:53.112Z,13.27
2023-05-14T00:38:24.628Z,13.27
2023-05-14T00:38:42.372Z,13.27
2023-05-14T00:39:12.636Z,13.27
2023-05-14T00:39:34.471Z,13.27
2023-05-14T00:40:00.811Z,13.27
2023-05-14T00:40:32.505Z,13.27
2023-05-14T00:41:05.050Z,13.27
2023-05-14T00:41:33.833Z,13.27
2023-05-14T00:41:52.683Z,13.27
2023-05-14T00:42:24.657Z,13.27
2023-05-14T00:42:41.419Z,13.27
2023-05-14T00:43:13.113Z,13.27
2023-05-14T00:43:33.804Z,13.27
2023-05-14T00:44:00.669Z,13.22
2023-05-14T00:44:32.195Z,13.22
2023-05-14T00:45:04.300Z,13.22
2023-05-14T00:45:33.802Z,13.22
2023-05-14T00:45:52.184Z,13.22
2023-05-14T00:46:25.177Z,13.22
2023-05-14T00:46:42.728Z,13.22
2023-05-14T00:47:12.748Z,13.22
2023-05-14T00:47:33.808Z,13.22
2023-05-14T00:48:00.743Z,13.22
2023-05-14T00:48:33.147Z,13.22
2023-05-14T00:49:04.182Z,13.22
2023-05-14T00:49:34.749Z,13.22
2023-05-14T00:49:52.132Z,13.22
2023-05-14T00:50:24.861Z,13.22
2023-05-14T00:50:43.463Z,13.22
2023-05-14T00:51:12.554Z,13.22
2023-05-14T00:51:33.796Z,13.22
2023-05-14T00:52:00.888Z,13.22
2023-05-14T00:52:32.196Z,13.22
2023-05-14T00:53:05.316Z,13.22
2023-05-14T00:53:33.765Z,13.22
2023-05-14T00:53:52.247Z,13.22
2023-05-14T00:54:24.684Z,13.22
2023-05-14T00:54:41.526Z,16.23
2023-05-14T00:55:13.146Z,13.22
2023-05-14T00:55:33.804Z,13.22
2023-05-14T00:56:00.658Z,13.22
2023-05-14T00:56:33.736Z,13.22
2023-05-14T00:57:04.211Z,14.62
2023-05-14T00:57:33.740Z,14.62
2023-05-14T00:57:52.215Z,13.22
2023-05-14T00:58:25.090Z,13.22
2023-05-14T00:58:41.465Z,13.22
2023-05-14T00:59:13.079Z,13.22
2023-05-14T00:59:33.750Z,13.22
2023-05-14T01:00:03.459Z,13.22
2023-05-14T01:00:33.198Z,13.22
2023-05-14T01:01:04.354Z,15.10
2023-05-14T01:01:34.901Z,15.63
2023-05-14T01:01:52.178Z,15.52
2023-05-14T01:02:24.790Z,13.11
2023-05-14T01:02:42.488Z,13.11
2023-05-14T01:03:12.685Z,13.11
2023-05-14T01:03:33.861Z,13.11
2023-05-14T01:04:00.723Z,13.11
2023-05-14T01:04:32.239Z,14.87
2023-05-14T01:05:05.071Z,13.00
2023-05-14T01:05:34.288Z,13.00
2023-05-14T01:05:52.137Z,13.00
2023-05-14T01:06:24.618Z,13.00
2023-05-14T01:06:41.421Z,13.00
2023-05-14T01:07:13.073Z,13.00
2023-05-14T01:07:34.302Z,16.02
2023-05-14T01:08:00.663Z,12.88
2023-05-14T01:08:32.197Z,12.88
2023-05-14T01:09:04.135Z,12.88
2023-05-14T01:09:33.760Z,12.88
2023-05-14T01:09:52.177Z,12.88
2023-05-14T01:10:25.452Z,12.77
2023-05-14T01:10:41.563Z,12.77
2023-05-14T01:11:12.682Z,12.77
2023-05-14T01:11:33.750Z,12.77
2023-05-14T01:12:00.903Z,12.72
2023-05-14T01:12:33.129Z,12.72
2023-05-14T01:13:04.330Z,12.72
2023-05-14T01:13:34.644Z,12.72
2023-05-14T01:13:52.141Z,12.61
2023-05-14T01:14:24.783Z,12.61
2023-05-14T01:14:42.756Z,12.61
2023-05-14T01:15:12.632Z,12.61
2023-05-14T01:15:34.322Z,12.61
2023-05-14T01:16:00.690Z,12.50
2023-05-14T01:16:32.215Z,12.50
2023-05-14T01:17:05.064Z,12.50
2023-05-14T01:17:34.177Z,12.50
2023-05-14T01:17:52.166Z,12.50
2023-05-14T01:18:24.734Z,12.38
2023-05-14T01:18:41.388Z,12.38
2023-05-14T01:19:13.235Z,12.38
2023-05-14T01:19:33.805Z,12.38
2023-05-14T01:20:01.063Z,12.27
2023-05-14T01:20:32.240Z,12.27
2023-05-14T01:21:04.123Z,12.27
2023-05-14T01:21:33.815Z,12.27
2023-05-14T01:21:52.126Z,12.22
2023-05-14T01:22:25.071Z,12.22
2023-05-14T01:22:41.557Z,12.22
2023-05-14T01:23:12.632Z,12.22
2023-05-14T01:23:34.320Z,12.22
2023-05-14T01:24:00.628Z,12.22
2023-05-14T01:24:33.248Z,12.11
2023-05-14T01:25:04.189Z,12.11
2023-05-14T01:25:34.638Z,12.11
2023-05-14T01:25:52.176Z,12.11
2023-05-14T01:26:24.669Z,12.11
2023-05-14T01:26:42.250Z,12.11
2023-05-14T01:27:12.598Z,12.11
2023-05-14T01:27:33.770Z,12.11
2023-05-14T01:28:00.773Z,12.11
2023-05-14T01:28:32.131Z,12.00
2023-05-14T01:29:05.279Z,12.00
2023-05-14T01:29:33.779Z,12.00
2023-05-14T01:29:52.147Z,12.00
2023-05-14T01:30:24.937Z,11.88
2023-05-14T01:30:41.471Z,11.88
2023-05-14T01:31:12.980Z,11.88
2023-05-14T01:31:33.987Z,11.88
2023-05-14T01:32:00.718Z,11.88
2023-05-14T01:32:32.222Z,13.44
2023-05-14T01:33:04.233Z,11.88
2023-05-14T01:33:33.745Z,11.88
2023-05-14T01:33:52.217Z,14.85
2023-05-14T01:34:25.249Z,11.77
2023-05-14T01:34:41.720Z,14.95
2023-05-14T01:35:12.588Z,11.88
2023-05-14T01:35:33.805Z,11.88
2023-05-14T01:36:01.125Z,11.88
2023-05-14T01:36:33.155Z,11.88
2023-05-14T01:37:04.132Z,11.88
2023-05-14T01:37:34.636Z,14.85
2023-05-14T01:37:52.126Z,11.77
2023-05-14T01:38:24.701Z,11.77
2023-05-14T01:38:42.456Z,11.77
2023-05-14T01:39:12.592Z,11.77
2023-05-14T01:39:33.880Z,11.77
2023-05-14T01:40:01.028Z,11.77
2023-05-14T01:40:32.314Z,11.77
2023-05-14T01:41:05.932Z,11.77
2023-05-14T01:41:33.735Z,11.77
2023-05-14T01:41:52.139Z,11.77
2023-05-14T01:42:24.570Z,11.77
2023-05-14T01:42:41.327Z,11.77
2023-05-14T01:43:13.136Z,11.77
2023-05-14T01:43:34.071Z,11.77
2023-05-14T01:44:00.636Z,11.77
2023-05-14T01:44:32.151Z,11.77
2023-05-14T01:45:04.439Z,11.77
2023-05-14T01:45:34.105Z,11.77
2023-05-14T01:45:52.321Z,11.77
2023-05-14T01:46:25.064Z,11.77
2023-05-14T01:46:41.603Z,11.77
2023-05-14T01:47:12.698Z,11.77
2023-05-14T01:47:34.008Z,11.77
2023-05-14T01:48:01.230Z,11.77
2023-05-14T01:48:33.137Z,11.77
2023-05-14T01:49:04.130Z,11.77
2023-05-14T01:49:34.734Z,11.77
2023-05-14T01:49:52.182Z,11.77
2023-05-14T01:50:24.792Z,11.72
2023-05-14T01:50:42.298Z,11.72
2023-05-14T01:51:12.557Z,11.72
2023-05-14T01:51:34.283Z,11.72
2023-05-14T01:52:00.490Z,11.72
2023-05-14T01:52:32.128Z,11.72
2023-05-14T01:53:05.031Z,11.72
2023-05-14T01:53:33.787Z,11.72
2023-05-14T01:53:52.188Z,11.72
2023-05-14T01:54:24.843Z,11.72
2023-05-14T01:54:41.377Z,11.72
2023-05-14T01:55:13.029Z,11.72
2023-05-14T01:55:33.958Z,11.72
2023-05-14T01:56:00.633Z,11.72
2023-05-14T01:56:32.189Z,11.72
2023-05-14T01:57:04.141Z,11.72
2023-05-14T01:57:33.817Z,13.56
2023-05-14T01:57:52.093Z,11.72
2023-05-14T01:58:25.068Z,14.80
2023-05-14T01:58:41.529Z,11.72
2023-05-14T01:59:12.580Z,11.61
2023-05-14T01:59:33.790Z,11.61
2023-05-14T02:00:01.080Z,11.61
2023-05-14T02:00:33.106Z,11.61
2023-05-14T02:01:04.170Z,14.70
2023-05-14T02:01:34.895Z,14.70
2023-05-14T02:01:52.162Z,11.61
2023-05-14T02:02:24.375Z,11.61
2023-05-14T02:02:42.226Z,11.61
2023-05-14T02:03:12.506Z,14.59
2023-05-14T02:03:35.462Z,13.33
2023-05-14T02:04:00.776Z,12.81
2023-05-14T02:04:32.085Z,11.50
2023-05-14T02:05:06.948Z,11.50
2023-05-14T02:05:34.093Z,11.50
2023-05-14T02:05:52.081Z,11.50
2023-05-14T02:06:24.534Z,11.50
2023-05-14T02:06:41.386Z,11.50
2023-05-14T02:07:13.044Z,11.50
2023-05-14T02:07:33.854Z,13.33
2023-05-14T02:08:00.427Z,13.81
2023-05-14T02:08:32.336Z,14.48
2023-05-14T02:09:04.222Z,11.38
2023-05-14T02:09:33.778Z,11.38
2023-05-14T02:09:52.131Z,11.38
2023-05-14T02:10:25.262Z,11.38
2023-05-14T02:10:41.552Z,11.38
2023-05-14T02:11:12.328Z,13.21
2023-05-14T02:11:33.962Z,14.48
2023-05-14T02:12:00.580Z,11.38
2023-05-14T02:12:33.047Z,12.92
2023-05-14T02:13:04.136Z,11.38
2023-05-14T02:13:36.362Z,13.21
2023-05-14T02:14:08.112Z,11.38
2023-05-14T02:14:34.056Z,14.48
2023-05-14T02:14:56.182Z,13.21
2023-05-14T02:15:28.350Z,11.38
2023-05-14T02:16:00.593Z,11.38
2023-05-14T02:16:32.157Z,11.38
2023-05-14T02:17:05.007Z,14.48
2023-05-14T02:17:33.845Z,14.48
2023-05-14T02:17:52.154Z,11.38
2023-05-14T02:18:24.630Z,11.38
2023-05-14T02:18:41.372Z,11.38
2023-05-14T02:19:13.202Z,11.38
2023-05-14T02:19:33.959Z,13.81
2023-05-14T02:20:00.658Z,11.38
2023-05-14T02:20:32.143Z,14.48
2023-05-14T02:21:04.252Z,11.27
2023-05-14T02:21:33.826Z,11.27
2023-05-14T02:21:52.070Z,11.27
2023-05-14T02:22:25.099Z,13.10
2023-05-14T02:22:41.492Z,11.27
2023-05-14T02:23:12.408Z,11.27
2023-05-14T02:23:41.152Z,11.27
2023-05-14T02:24:00.456Z,11.27
2023-05-14T02:24:33.036Z,12.81
2023-05-14T02:25:04.145Z,11.27
2023-05-14T02:25:35.295Z,11.27
2023-05-14T02:25:52.113Z,11.27
2023-05-14T02:26:25.033Z,13.05
2023-05-14T02:26:42.107Z,11.22
2023-05-14T02:27:12.407Z,11.22
2023-05-14T02:27:34.558Z,11.22
2023-05-14T02:28:00.527Z,14.33
2023-05-14T02:28:32.102Z,11.22
2023-05-14T02:29:05.083Z,13.65
2023-05-14T02:29:33.827Z,11.22
2023-05-14T02:29:52.160Z,11.11
2023-05-14T02:30:24.895Z,11.11
2023-05-14T02:30:41.438Z,14.22
2023-05-14T02:31:13.147Z,11.11
2023-05-14T02:31:33.836Z,11.11
2023-05-14T02:32:00.489Z,14.22
2023-05-14T02:32:32.178Z,11.11
2023-05-14T02:33:04.346Z,11.11
2023-05-14T02:33:33.836Z,11.11
2023-05-14T02:33:52.240Z,11.11
2023-05-14T02:34:25.300Z,11.11
2023-05-14T02:34:41.599Z,11.11
2023-05-14T02:35:12.478Z,11.11
2023-05-14T02:35:33.934Z,11.11
2023-05-14T02:36:00.418Z,11.11
2023-05-14T02:36:32.833Z,11.11
2023-05-14T02:37:04.136Z,11.11
2023-05-14T02:37:34.835Z,11.11
2023-05-14T02:37:52.087Z,11.00
2023-05-14T02:38:24.524Z,11.00
2023-05-14T02:38:42.303Z,11.00
2023-05-14T02:39:12.051Z,11.00
2023-05-14T02:39:34.294Z,11.00
2023-05-14T02:40:00.151Z,10.88
2023-05-14T02:40:32.113Z,10.88
2023-05-14T02:41:04.838Z,10.88
2023-05-14T02:41:33.898Z,10.88
2023-05-14T02:41:52.094Z,10.77
2023-05-14T02:42:24.454Z,10.77
2023-05-14T02:42:41.351Z,10.77
2023-05-14T02:43:13.148Z,10.77
2023-05-14T02:43:35.538Z,10.77
2023-05-14T02:44:00.129Z,10.77
2023-05-14T02:44:32.102Z,10.77
2023-05-14T02:45:04.210Z,10.77
2023-05-14T02:45:33.809Z,10.77
2023-05-14T02:45:52.230Z,10.72
2023-05-14T02:46:25.220Z,10.72
2023-05-14T02:46:41.796Z,10.72
2023-05-14T02:47:12.352Z,10.72
2023-05-14T02:47:36.120Z,10.72
2023-05-14T02:48:00.423Z,10.72
2023-05-14T02:48:32.926Z,10.72
2023-05-14T02:49:04.108Z,10.61
2023-05-14T02:49:35.361Z,10.61
2023-05-14T02:50:07.519Z,10.61
2023-05-14T02:50:24.679Z,10.61
2023-05-14T02:50:43.312Z,10.61
2023-05-14T02:51:12.382Z,10.61
2023-05-14T02:51:34.117Z,10.61
2023-05-14T02:52:00.323Z,10.61
2023-05-14T02:52:32.126Z,10.61
2023-05-14T02:53:04.982Z,10.50
2023-05-14T02:53:33.905Z,10.50
2023-05-14T02:53:52.170Z,10.50
2023-05-14T02:54:24.167Z,10.50
2023-05-14T02:54:41.305Z,10.50
2023-05-14T02:55:13.181Z,10.38
2023-05-14T02:55:33.880Z,10.38
2023-05-14T02:56:00.114Z,10.38
2023-05-14T02:56:32.090Z,10.38
2023-05-14T02:57:04.079Z,10.38
2023-05-14T02:57:33.880Z,10.38
2023-05-14T02:57:52.124Z,10.38
2023-05-14T02:58:28.893Z,10.38
2023-05-14T02:58:56.033Z,10.38
2023-05-14T02:59:28.122Z,10.38
2023-05-14T03:00:00.090Z,10.38
2023-05-14T03:00:32.178Z,10.38
2023-05-14T03:01:04.355Z,10.27
2023-05-14T03:01:33.792Z,10.27
2023-05-14T03:01:52.989Z,10.27
2023-05-14T03:02:24.095Z,10.27
2023-05-14T03:02:41.442Z,10.27
2023-05-14T03:03:12.067Z,10.27
2023-05-14T03:03:34.310Z,10.22
2023-05-14T03:04:01.391Z,10.22
2023-05-14T03:04:32.101Z,10.11
2023-05-14T03:05:05.075Z,10.11
2023-05-14T03:05:33.889Z,10.11
2023-05-14T03:05:52.122Z,10.11
2023-05-14T03:06:30.273Z,10.11
2023-05-14T03:06:34.576Z,10.11
2023-05-14T03:06:56.100Z,10.11
2023-05-14T03:07:28.119Z,10.11
2023-05-14T03:08:06.283Z,10.11
2023-05-14T03:08:16.891Z,10.00
2023-05-14T03:08:48.030Z,10.00
2023-05-14T03:09:21.099Z,10.00
2023-05-14T03:09:38.572Z,10.00
2023-05-14T03:10:08.071Z,10.00
2023-05-14T03:10:33.782Z,10.00
2023-05-14T03:10:56.045Z,10.00
2023-05-14T03:11:28.991Z,10.00
2023-05-14T03:12:00.026Z,10.00
2023-05-14T03:12:32.994Z,10.00
2023-05-14T03:13:04.172Z,10.00
2023-05-14T03:13:34.653Z,10.00
2023-05-14T03:13:52.112Z,10.00
2023-05-14T03:14:24.124Z,10.00
2023-05-14T03:14:42.214Z,10.00
2023-05-14T03:15:20.657Z,10.00
2023-05-14T03:15:28.069Z,10.00
2023-05-14T03:16:00.697Z,10.00
2023-05-14T03:16:32.242Z,10.00
2023-05-14T03:17:04.197Z,9.88
2023-05-14T03:17:33.830Z,9.88
2023-05-14T03:17:53.158Z,9.88
2023-05-14T03:18:24.182Z,9.88
2023-05-14T03:18:41.308Z,9.88
2023-05-14T03:19:12.095Z,9.88
2023-05-14T03:19:33.892Z,9.88
2023-05-14T03:20:01.921Z,9.88
2023-05-14T03:20:32.045Z,9.88
2023-05-14T03:21:05.142Z,9.88
2023-05-14T03:21:33.911Z,9.77
2023-05-14T03:21:52.119Z,9.77
2023-05-14T03:22:24.095Z,9.77
2023-05-14T03:22:41.256Z,9.77
2023-05-14T03:23:13.235Z,9.77
2023-05-14T03:23:35.061Z,9.77
2023-05-14T03:24:00.023Z,9.77
2023-05-14T03:24:32.071Z,9.77
2023-05-14T03:25:04.106Z,9.77
2023-05-14T03:25:33.854Z,9.77
2023-05-14T03:25:52.050Z,9.77
2023-05-14T03:26:25.235Z,9.77
2023-05-14T03:26:41.475Z,9.77
2023-05-14T03:27:12.130Z,9.77
2023-05-14T03:27:33.798Z,9.77
2023-05-14T03:28:00.038Z,9.77
2023-05-14T03:28:32.971Z,9.77
2023-05-14T03:29:04.167Z,9.77
2023-05-14T03:29:34.779Z,9.77
2023-05-14T03:29:52.028Z,9.77
2023-05-14T03:30:24.517Z,9.77
2023-05-14T03:30:42.222Z,9.77
2023-05-14T03:31:12.078Z,9.77
2023-05-14T03:31:33.769Z,9.77
2023-05-14T03:32:00.033Z,9.77
2023-05-14T03:32:34.638Z,9.77
2023-05-14T03:33:04.994Z,9.72
2023-05-14T03:33:33.791Z,9.72
2023-05-14T03:33:52.060Z,9.72
2023-05-14T03:34:24.003Z,9.72
2023-05-14T03:34:41.304Z,9.72
2023-05-14T03:35:13.297Z,9.72
2023-05-14T03:35:33.834Z,9.72
2023-05-14T03:36:00.106Z,9.72
2023-05-14T03:36:32.066Z,9.72
2023-05-14T03:37:04.126Z,9.61
2023-05-14T03:37:33.796Z,9.61
2023-05-14T03:37:52.036Z,9.61
2023-05-14T03:38:25.282Z,9.61
2023-05-14T03:38:58.333Z,9.61
2023-05-14T03:39:28.911Z,9.61
2023-05-14T03:40:01.280Z,9.50
2023-05-14T03:40:32.945Z,9.50
2023-05-14T03:41:04.111Z,9.50
2023-05-14T03:41:34.993Z,9.50
2023-05-14T03:42:08.018Z,9.50
2023-05-14T03:42:33.759Z,9.50
2023-05-14T03:42:56.037Z,9.50
2023-05-14T03:43:28.089Z,9.50
2023-05-14T03:44:01.609Z,9.50
2023-05-14T03:44:32.147Z,9.61
2023-05-14T03:45:05.064Z,9.50
2023-05-14T03:45:33.888Z,9.50
2023-05-14T03:45:52.056Z,9.50
2023-05-14T03:46:24.130Z,9.50
2023-05-14T03:46:41.367Z,9.50
2023-05-14T03:47:13.413Z,9.50
2023-05-14T03:47:33.909Z,9.38
2023-05-14T03:48:00.163Z,9.38
2023-05-14T03:48:32.266Z,9.38
2023-05-14T03:49:04.206Z,9.38
2023-05-14T03:49:33.813Z,9.38
2023-05-14T03:49:52.247Z,9.38
2023-05-14T03:50:25.652Z,9.38
2023-05-14T03:50:57.121Z,9.38
2023-05-14T03:51:29.058Z,9.38
2023-05-14T03:52:00.121Z,9.38
2023-05-14T03:52:32.934Z,9.38
2023-05-14T03:53:04.105Z,9.38
2023-05-14T03:53:34.739Z,9.38
2023-05-14T03:53:52.080Z,9.38
2023-05-14T03:54:24.063Z,9.38
2023-05-14T03:54:42.337Z,9.38
2023-05-14T03:55:12.108Z,9.38
2023-05-14T03:55:34.284Z,9.38
2023-05-14T03:56:00.063Z,9.38
2023-05-14T03:56:32.151Z,9.38
2023-05-14T03:57:05.262Z,9.38
2023-05-14T03:57:34.352Z,9.38
2023-05-14T03:57:52.053Z,9.38
2023-05-14T03:58:24.135Z,9.38
2023-05-14T03:58:41.297Z,9.38
2023-05-14T03:59:13.377Z,9.38
2023-05-14T03:59:34.010Z,9.38
2023-05-14T04:00:00.057Z,9.38
2023-05-14T04:00:32.157Z,9.38
2023-05-14T04:01:04.109Z,9.38
2023-05-14T04:01:33.817Z,9.38
2023-05-14T04:01:52.248Z,9.38
2023-05-14T04:02:25.415Z,9.38
2023-05-14T04:02:57.315Z,9.38
2023-05-14T04:03:29.113Z,9.38
2023-05-14T04:04:00.179Z,9.38
2023-05-14T04:04:33.162Z,9.38
2023-05-14T04:05:04.094Z,9.38
2023-05-14T04:05:34.696Z,9.38
2023-05-14T04:05:52.139Z,9.38
2023-05-14T04:06:24.161Z,9.38
2023-05-14T04:06:42.208Z,9.38
2023-05-14T04:07:12.017Z,9.38
2023-05-14T04:07:33.821Z,9.38
2023-05-14T04:08:00.096Z,9.38
2023-05-14T04:08:32.246Z,9.38
2023-05-14T04:09:05.168Z,9.38
2023-05-14T04:09:33.869Z,9.38
2023-05-14T04:09:52.137Z,9.38
2023-05-14T04:10:24.279Z,9.38
2023-05-14T04:10:41.304Z,9.38
2023-05-14T04:11:13.310Z,9.38
2023-05-14T04:11:33.820Z,9.38
2023-05-14T04:12:00.074Z,9.38
2023-05-14T04:12:32.167Z,9.38
2023-05-14T04:13:04.135Z,9.38
2023-05-14T04:13:33.909Z,9.38
2023-05-14T04:13:52.048Z,9.38
2023-05-14T04:14:25.345Z,9.38
2023-05-14T04:14:57.152Z,9.38
2023-05-14T04:15:29.148Z,9.38
2023-05-14T04:16:00.107Z,9.50
2023-05-14T04:16:33.012Z,9.50
2023-05-14T04:17:04.105Z,9.50
2023-05-14T04:17:35.279Z,9.50
2023-05-14T04:17:52.125Z,9.38
2023-05-14T04:18:24.029Z,9.38
2023-05-14T04:18:42.594Z,9.38
2023-05-14T04:19:12.262Z,9.38
2023-05-14T04:19:33.773Z,9.38
2023-05-14T04:20:11.948Z,9.38
2023-05-14T04:20:16.214Z,9.38
2023-05-14T04:20:33.845Z,9.38
2023-05-14T04:21:05.105Z,9.38
2023-05-14T04:21:33.791Z,9.38
2023-05-14T04:21:52.106Z,9.38
2023-05-14T04:22:24.109Z,9.38
2023-05-14T04:22:41.281Z,9.38
2023-05-14T04:23:13.424Z,9.38
2023-05-14T04:23:33.866Z,9.38
2023-05-14T04:24:00.099Z,9.38
2023-05-14T04:24:32.125Z,9.38
2023-05-14T04:25:04.128Z,9.38
2023-05-14T04:25:34.089Z,9.38
2023-05-14T04:25:52.099Z,9.38
2023-05-14T04:26:25.806Z,9.38
2023-05-14T04:26:56.132Z,9.38
2023-05-14T04:27:29.092Z,9.38
2023-05-14T04:28:00.124Z,9.38
2023-05-14T04:28:32.859Z,9.38
2023-05-14T04:29:04.166Z,9.38
2023-05-14T04:29:34.795Z,9.38
2023-05-14T04:29:52.241Z,9.38
2023-05-14T04:30:24.462Z,9.38
2023-05-14T04:30:42.280Z,9.38
2023-05-14T04:31:12.060Z,9.50
2023-05-14T04:31:33.855Z,9.50
2023-05-14T04:32:00.163Z,9.50
2023-05-14T04:32:32.150Z,9.50
2023-05-14T04:33:04.895Z,9.50
2023-05-14T04:33:33.959Z,9.50
2023-05-14T04:33:52.000Z,9.50
2023-05-14T04:34:24.184Z,9.50
2023-05-14T04:34:41.484Z,9.50
2023-05-14T04:35:13.492Z,9.50
2023-05-14T04:35:33.777Z,9.50
2023-05-14T04:35:59.992Z,9.50
2023-05-14T04:36:32.065Z,9.50
2023-05-14T04:37:04.074Z,9.50
2023-05-14T04:37:33.838Z,9.50
2023-05-14T04:37:52.142Z,9.50
2023-05-14T04:38:25.274Z,9.50
2023-05-14T04:38:41.853Z,9.50
2023-05-14T04:39:20.016Z,9.50
2023-05-14T04:39:30.438Z,9.50
2023-05-14T04:40:00.166Z,9.50
2023-05-14T04:40:32.949Z,9.50
2023-05-14T04:41:04.341Z,9.50
2023-05-14T04:41:35.422Z,9.50
2023-05-14T04:41:52.086Z,9.50
2023-05-14T04:42:24.054Z,9.50
2023-05-14T04:42:42.090Z,9.50
2023-05-14T04:43:12.290Z,9.50
2023-05-14T04:43:33.837Z,9.50
2023-05-14T04:44:00.101Z,9.50
2023-05-14T04:44:32.020Z,9.50
2023-05-14T04:45:05.040Z,9.61
2023-05-14T04:45:34.467Z,9.61
2023-05-14T04:45:52.146Z,9.61
2023-05-14T04:46:24.225Z,9.61
2023-05-14T04:46:41.944Z,9.61
2023-05-14T04:47:13.299Z,9.61
2023-05-14T04:47:34.178Z,9.61
2023-05-14T04:48:00.141Z,9.61
2023-05-14T04:48:32.209Z,9.61
2023-05-14T04:49:04.147Z,9.61
2023-05-14T04:49:33.792Z,9.61
2023-05-14T04:49:51.968Z,9.72
2023-05-14T04:50:25.705Z,9.72
2023-05-14T04:50:43.076Z,9.72
2023-05-14T04:51:12.000Z,9.72
2023-05-14T04:51:33.846Z,9.72
2023-05-14T04:51:59.988Z,9.72
2023-05-14T04:52:32.897Z,9.72
2023-05-14T04:53:04.115Z,9.72
2023-05-14T04:53:34.664Z,9.72
2023-05-14T04:53:52.552Z,9.77
2023-05-14T04:54:24.120Z,9.77
2023-05-14T04:54:42.314Z,9.77
2023-05-14T04:55:11.977Z,9.77
2023-05-14T04:55:33.804Z,9.77
2023-05-14T04:56:00.029Z,9.77
2023-05-14T04:56:31.976Z,9.77
2023-05-14T04:57:05.030Z,9.77
2023-05-14T04:57:33.823Z,9.77
2023-05-14T04:57:52.086Z,9.77
2023-05-14T04:58:24.044Z,9.77
2023-05-14T04:58:41.292Z,9.88
2023-05-14T04:59:13.514Z,9.88
2023-05-14T04:59:33.781Z,9.88
2023-05-14T05:00:03.459Z,9.88
2023-05-14T05:00:32.042Z,9.88
2023-05-14T05:01:04.616Z,12.32
2023-05-14T05:01:33.808Z,13.05
2023-05-14T05:01:51.966Z,12.32
2023-05-14T05:02:25.323Z,9.88
2023-05-14T05:02:41.906Z,10.00
2023-05-14T05:03:12.129Z,10.00
2023-05-14T05:03:33.990Z,10.00
2023-05-14T05:04:00.013Z,10.00
2023-05-14T05:04:33.054Z,10.00
2023-05-14T05:05:04.050Z,10.00
2023-05-14T05:05:34.833Z,10.11
2023-05-14T05:05:51.959Z,10.11
2023-05-14T05:06:24.155Z,10.11
2023-05-14T05:06:42.100Z,13.27
2023-05-14T05:07:13.563Z,10.22
2023-05-14T05:07:33.783Z,10.22
2023-05-14T05:08:00.021Z,10.22
2023-05-14T05:08:32.062Z,10.22
2023-05-14T05:09:05.052Z,10.27
2023-05-14T05:09:33.787Z,10.27
2023-05-14T05:09:51.981Z,10.27
2023-05-14T05:10:24.510Z,10.27
2023-05-14T05:10:41.616Z,10.27
2023-05-14T05:11:13.279Z,10.27
2023-05-14T05:11:33.776Z,10.27
2023-05-14T05:12:00.120Z,10.38
2023-05-14T05:12:31.975Z,12.82
2023-05-14T05:13:04.076Z,10.38
2023-05-14T05:13:34.583Z,10.50
2023-05-14T05:13:52.024Z,10.50
2023-05-14T05:14:25.275Z,10.50
2023-05-14T05:14:42.019Z,10.50
2023-05-14T05:15:12.173Z,13.75
2023-05-14T05:15:33.788Z,10.61
2023-05-14T05:16:00.155Z,10.61
2023-05-14T05:16:32.233Z,10.61
2023-05-14T05:17:04.949Z,10.61
2023-05-14T05:17:33.833Z,10.61
2023-05-14T05:17:52.110Z,10.61
2023-05-14T05:18:24.043Z,10.72
2023-05-14T05:18:41.393Z,10.72
2023-05-14T05:19:13.434Z,10.72
2023-05-14T05:19:43.087Z,10.72
2023-05-14T05:20:00.065Z,10.72
2023-05-14T05:20:33.735Z,10.72
2023-05-14T05:21:04.045Z,10.77
2023-05-14T05:21:35.223Z,10.77
2023-05-14T05:21:52.010Z,10.77
2023-05-14T05:22:25.307Z,10.77
2023-05-14T05:22:41.894Z,10.77
2023-05-14T05:23:12.016Z,10.77
2023-05-14T05:23:34.161Z,10.77
2023-05-14T05:24:00.059Z,14.00
2023-05-14T05:24:33.073Z,12.70
2023-05-14T05:25:03.987Z,10.88
2023-05-14T05:25:34.684Z,10.88
2023-05-14T05:25:52.073Z,10.88
2023-05-14T05:26:24.066Z,10.88
2023-05-14T05:26:43.364Z,10.88
2023-05-14T05:27:12.079Z,13.43
2023-05-14T05:27:33.847Z,11.81
2023-05-14T05:28:00.063Z,11.00
2023-05-14T05:28:31.950Z,11.00
2023-05-14T05:29:05.088Z,11.00
2023-05-14T05:29:33.748Z,11.00
2023-05-14T05:29:52.086Z,14.12
2023-05-14T05:30:24.337Z,11.00
2023-05-14T05:30:41.344Z,11.11
2023-05-14T05:31:13.364Z,11.11
2023-05-14T05:31:33.808Z,11.11
2023-05-14T05:32:00.040Z,14.22
2023-05-14T05:32:32.009Z,14.22
2023-05-14T05:33:04.154Z,11.11
2023-05-14T05:33:34.065Z,11.11
2023-05-14T05:33:52.043Z,11.11
2023-05-14T05:34:25.676Z,11.93
2023-05-14T05:34:41.750Z,12.64
2023-05-14T05:35:12.070Z,11.11
2023-05-14T05:35:33.910Z,11.11
2023-05-14T05:36:00.149Z,13.65
2023-05-14T05:36:33.010Z,11.22
2023-05-14T05:37:04.025Z,14.33
2023-05-14T05:37:35.266Z,11.22
2023-05-14T05:37:51.761Z,11.22
2023-05-14T05:38:24.148Z,11.22
2023-05-14T05:38:42.270Z,11.22
2023-05-14T05:39:12.103Z,11.22
2023-05-14T05:39:33.890Z,14.33
2023-05-14T05:39:59.995Z,14.33
2023-05-14T05:40:31.987Z,11.22
2023-05-14T05:41:06.050Z,14.33
2023-05-14T05:41:34.118Z,11.22
2023-05-14T05:41:52.242Z,11.22
2023-05-14T05:42:30.395Z,11.22
2023-05-14T05:42:34.568Z,11.22
2023-05-14T05:42:55.972Z,11.22
2023-05-14T05:43:27.982Z,11.22
2023-05-14T05:44:00.041Z,11.27
2023-05-14T05:44:31.971Z,14.37
2023-05-14T05:45:04.055Z,11.27
2023-05-14T05:45:34.385Z,11.27
2023-05-14T05:45:53.894Z,11.27
2023-05-14T05:46:23.985Z,14.48
2023-05-14T05:46:41.322Z,12.48
2023-05-14T05:47:12.041Z,11.38
2023-05-14T05:47:33.790Z,11.38
2023-05-14T05:48:01.556Z,13.21
2023-05-14T05:48:31.950Z,13.10
2023-05-14T05:49:06.083Z,14.37
2023-05-14T05:49:33.750Z,11.27
2023-05-14T05:49:52.006Z,13.10
2023-05-14T05:50:24.199Z,13.10